sensor_id;sensor_type;location;lat;lon;timestamp;pressure;altitude;pressure_sealevel;temperature;humidity
21431;BME280;10876;49.038;10.608;2023-04-02T00:01:16;97776.31;;;8.13;100.00
21431;BME280;10876;49.038;10.608;2023-04-02T00:04:10;97785.94;;;8.10;100.00
21431;BME280;10876;49.038;10.608;2023-04-02T00:06:39;97781.75;;;8.04;100.00
21431;BME280;10876;49.038;10.608;2023-04-02T00:09:39;97785.94;;;8.10;100.00
21431;BME280;10876;49.038;10.608;2023-04-02T00:12:17;97782.72;;;8.08;100.00
21431;BME280;10876;49.038;10.608;2023-04-02T00:14:52;97787.38;;;8.08;100.00
21431;BME280;10876;49.038;10.608;2023-04-02T00:17:23;97782.72;;;8.08;100.00
21431;BME280;10876;49.038;10.608;2023-04-02T00:19:54;97788.81;;;8.05;100.00
21431;BME280;10876;49.038;10.608;2023-04-02T00:22:26;97794.59;;;8.12;100.00
21431;BME280;10876;49.038;10.608;2023-04-02T00:24:55;97794.25;;;8.05;100.00
21431;BME280;10876;49.038;10.608;2023-04-02T00:27:24;97797.81;;;8.15;100.00
21431;BME280;10876;49.038;10.608;2023-04-02T00:29:52;97801.66;;;8.13;100.00
21431;BME280;10876;49.038;10.608;2023-04-02T00:32:23;97800.88;;;8.13;100.00
21431;BME280;10876;49.038;10.608;2023-04-02T00:34:51;97795.88;;;8.06;100.00
21431;BME280;10876;49.038;10.608;2023-04-02T00:37:20;97801.94;;;8.03;100.00
21431;BME280;10876;49.038;10.608;2023-04-02T00:39:54;97799.22;;;8.03;100.00
21431;BME280;10876;49.038;10.608;2023-04-02T00:42:24;97800.53;;;8.06;100.00
21431;BME280;10876;49.038;10.608;2023-04-02T00:44:53;97806.44;;;7.99;100.00
21431;BME280;10876;49.038;10.608;2023-04-02T00:47:22;97801.31;;;8.06;100.00
21431;BME280;10876;49.038;10.608;2023-04-02T00:49:56;97801.16;;;8.03;100.00
21431;BME280;10876;49.038;10.608;2023-04-02T00:52:27;97798.75;;;8.01;100.00
21431;BME280;10876;49.038;10.608;2023-04-02T00:55:01;97804.34;;;7.96;100.00
21431;BME280;10876;49.038;10.608;2023-04-02T00:57:31;97806.44;;;7.99;100.00
21431;BME280;10876;49.038;10.608;2023-04-02T01:00:01;97810.78;;;8.00;100.00
21431;BME280;10876;49.038;10.608;2023-04-02T01:02:36;97808.69;;;7.97;100.00
21431;BME280;10876;49.038;10.608;2023-04-02T01:05:20;97817.50;;;7.94;100.00
21431;BME280;10876;49.038;10.608;2023-04-02T01:08:00;97809.31;;;7.94;100.00
21431;BME280;10876;49.038;10.608;2023-04-02T01:10:53;97822.44;;;7.92;100.00
21431;BME280;10876;49.038;10.608;2023-04-02T01:13:30;97817.97;;;7.96;100.00
21431;BME280;10876;49.038;10.608;2023-04-02T01:16:04;97820.84;;;7.91;100.00
21431;BME280;10876;49.038;10.608;2023-04-02T01:18:41;97820.69;;;7.87;100.00
21431;BME280;10876;49.038;10.608;2023-04-02T01:24:11;97829.53;;;7.93;100.00
21431;BME280;10876;49.038;10.608;2023-04-02T01:26:48;97832.84;;;7.81;100.00
21431;BME280;10876;49.038;10.608;2023-04-02T01:29:21;97828.81;;;7.79;100.00
21431;BME280;10876;49.038;10.608;2023-04-02T01:31:50;97825.28;;;7.78;100.00
21431;BME280;10876;49.038;10.608;2023-04-02T01:34:21;97824.00;;;7.76;100.00
21431;BME280;10876;49.038;10.608;2023-04-02T01:37:05;97791.78;;;7.78;100.00
21431;BME280;10876;49.038;10.608;2023-04-02T01:39:44;97791.09;;;7.72;100.00
21431;BME280;10876;49.038;10.608;2023-04-02T01:42:17;97790.31;;;7.72;100.00
21431;BME280;10876;49.038;10.608;2023-04-02T01:44:48;97777.81;;;7.71;100.00
21431;BME280;10876;49.038;10.608;2023-04-02T01:47:17;97774.59;;;7.68;100.00
21431;BME280;10876;49.038;10.608;2023-04-02T01:49:45;97767.06;;;7.65;100.00
21431;BME280;10876;49.038;10.608;2023-04-02T01:52:16;97755.34;;;7.65;100.00
21431;BME280;10876;49.038;10.608;2023-04-02T01:54:44;97742.06;;;7.72;100.00
21431;BME280;10876;49.038;10.608;2023-04-02T01:57:13;97744.75;;;7.63;100.00
21431;BME280;10876;49.038;10.608;2023-04-02T01:59:40;97739.31;;;7.63;100.00
21431;BME280;10876;49.038;10.608;2023-04-02T02:02:10;97743.31;;;7.66;100.00
21431;BME280;10876;49.038;10.608;2023-04-02T02:04:37;97744.13;;;7.66;100.00
21431;BME280;10876;49.038;10.608;2023-04-02T02:07:05;97744.13;;;7.66;100.00
21431;BME280;10876;49.038;10.608;2023-04-02T02:09:39;97741.56;;;7.61;100.00
21431;BME280;10876;49.038;10.608;2023-04-02T02:12:06;97757.09;;;7.61;100.00
21431;BME280;10876;49.038;10.608;2023-04-02T02:14:35;97755.66;;;7.63;100.00
21431;BME280;10876;49.038;10.608;2023-04-02T02:17:02;97761.44;;;7.62;100.00
21431;BME280;10876;49.038;10.608;2023-04-02T02:19:41;97757.91;;;7.61;100.00
21431;BME280;10876;49.038;10.608;2023-04-02T02:22:13;97760.31;;;7.63;100.00
21431;BME280;10876;49.038;10.608;2023-04-02T02:24:41;97760.00;;;7.64;100.00
21431;BME280;10876;49.038;10.608;2023-04-02T02:27:36;97755.97;;;7.62;100.00
21431;BME280;10876;49.038;10.608;2023-04-02T02:30:13;97757.91;;;7.61;100.00
21431;BME280;10876;49.038;10.608;2023-04-02T02:32:46;97767.19;;;7.60;100.00
21431;BME280;10876;49.038;10.608;2023-04-02T02:35:20;97762.53;;;7.61;100.00
21431;BME280;10876;49.038;10.608;2023-04-02T02:37:52;97762.22;;;7.62;100.00
21431;BME280;10876;49.038;10.608;2023-04-02T02:40:26;97761.72;;;7.60;100.00
21431;BME280;10876;49.038;10.608;2023-04-02T02:42:57;97766.75;;;7.67;100.00
21431;BME280;10876;49.038;10.608;2023-04-02T02:45:28;97758.88;;;7.65;100.00
21431;BME280;10876;49.038;10.608;2023-04-02T02:47:57;97761.09;;;7.63;100.00
21431;BME280;10876;49.038;10.608;2023-04-02T02:50:27;97767.06;;;7.65;100.00
21431;BME280;10876;49.038;10.608;2023-04-02T02:52:57;97774.09;;;7.66;100.00
21431;BME280;10876;49.038;10.608;2023-04-02T02:55:28;97770.91;;;7.64;100.00
21431;BME280;10876;49.038;10.608;2023-04-02T02:58:00;97772.00;;;7.63;100.00
21431;BME280;10876;49.038;10.608;2023-04-02T03:00:29;97770.91;;;7.64;100.00
21431;BME280;10876;49.038;10.608;2023-04-02T03:02:56;97780.97;;;7.64;100.00
21431;BME280;10876;49.038;10.608;2023-04-02T03:05:26;97781.31;;;7.62;100.00
21431;BME280;10876;49.038;10.608;2023-04-02T03:07:55;97783.53;;;7.60;100.00
21431;BME280;10876;49.038;10.608;2023-04-02T03:10:28;97799.88;;;7.60;100.00
21431;BME280;10876;49.038;10.608;2023-04-02T03:13:02;97793.81;;;7.63;100.00
21431;BME280;10876;49.038;10.608;2023-04-02T03:15:37;97795.56;;;7.59;100.00
21431;BME280;10876;49.038;10.608;2023-04-02T03:18:09;97811.56;;;7.61;100.00
21431;BME280;10876;49.038;10.608;2023-04-02T03:20:42;97805.50;;;7.64;100.00
21431;BME280;10876;49.038;10.608;2023-04-02T03:23:16;97805.19;;;7.65;100.00
21431;BME280;10876;49.038;10.608;2023-04-02T03:25:47;97825.53;;;7.59;100.00
21431;BME280;10876;49.038;10.608;2023-04-02T03:28:21;97840.28;;;7.58;100.00
21431;BME280;10876;49.038;10.608;2023-04-02T03:30:51;97849.56;;;7.57;100.00
21431;BME280;10876;49.038;10.608;2023-04-02T03:33:23;97855.81;;;7.58;100.00
21431;BME280;10876;49.038;10.608;2023-04-02T03:35:57;97868.63;;;7.57;100.00
21431;BME280;10876;49.038;10.608;2023-04-02T03:38:27;97867.34;;;7.55;100.00
21431;BME280;10876;49.038;10.608;2023-04-02T03:41:01;97872.78;;;7.55;100.00
21431;BME280;10876;49.038;10.608;2023-04-02T03:43:32;97869.75;;;7.56;100.00
21431;BME280;10876;49.038;10.608;2023-04-02T03:46:10;97879.66;;;7.52;100.00
21431;BME280;10876;49.038;10.608;2023-04-02T03:48:41;97876.00;;;7.57;100.00
21431;BME280;10876;49.038;10.608;2023-04-02T03:51:13;97881.75;;;7.55;100.00
21431;BME280;10876;49.038;10.608;2023-04-02T03:53:43;97876.00;;;7.57;100.00
21431;BME280;10876;49.038;10.608;2023-04-02T03:56:20;97887.69;;;7.57;100.00
21431;BME280;10876;49.038;10.608;2023-04-02T03:58:52;97890.25;;;7.54;100.00
21431;BME280;10876;49.038;10.608;2023-04-02T04:01:25;97881.28;;;7.53;100.00
21431;BME280;10876;49.038;10.608;2023-04-02T04:03:55;97892.19;;;7.53;100.00
21431;BME280;10876;49.038;10.608;2023-04-02T04:06:31;97885.09;;;7.52;100.00
21431;BME280;10876;49.038;10.608;2023-04-02T04:08:59;97893.94;;;7.58;100.00
21431;BME280;10876;49.038;10.608;2023-04-02T04:11:34;97896.50;;;7.54;100.00
21431;BME280;10876;49.038;10.608;2023-04-02T04:14:05;97899.22;;;7.54;100.00
21431;BME280;10876;49.038;10.608;2023-04-02T04:16:40;97905.81;;;7.53;100.00
21431;BME280;10876;49.038;10.608;2023-04-02T04:19:14;97923.25;;;7.52;100.00
21431;BME280;10876;49.038;10.608;2023-04-02T04:21:47;97932.03;;;7.49;100.00
21431;BME280;10876;49.038;10.608;2023-04-02T04:24:17;97938.97;;;7.55;100.00
21431;BME280;10876;49.038;10.608;2023-04-02T04:26:51;97937.88;;;7.56;100.00
21431;BME280;10876;49.038;10.608;2023-04-02T04:29:31;97942.03;;;7.54;100.00
21431;BME280;10876;49.038;10.608;2023-04-02T04:32:13;97948.28;;;7.54;100.00
21431;BME280;10876;49.038;10.608;2023-04-02T04:34:44;97946.34;;;7.55;100.00
21431;BME280;10876;49.038;10.608;2023-04-02T04:37:19;97959.78;;;7.51;100.00
21431;BME280;10876;49.038;10.608;2023-04-02T04:39:54;97952.13;;;7.53;100.00
21431;BME280;10876;49.038;10.608;2023-04-02T04:42:24;97966.38;;;7.50;100.00
21431;BME280;10876;49.038;10.608;2023-04-02T04:44:57;97970.69;;;7.51;100.00
21431;BME280;10876;49.038;10.608;2023-04-02T04:47:28;97967.34;;;7.54;100.00
21431;BME280;10876;49.038;10.608;2023-04-02T04:49:59;97981.59;;;7.51;100.00
21431;BME280;10876;49.038;10.608;2023-04-02T04:52:34;97980.78;;;7.51;100.00
21431;BME280;10876;49.038;10.608;2023-04-02T04:55:02;97981.47;;;7.56;100.00
21431;BME280;10876;49.038;10.608;2023-04-02T04:57:31;97973.31;;;7.56;100.00
21431;BME280;10876;49.038;10.608;2023-04-02T05:00:04;97980.16;;;7.54;100.00
21431;BME280;10876;49.038;10.608;2023-04-02T05:02:37;97985.78;;;7.57;100.00
21431;BME280;10876;49.038;10.608;2023-04-02T05:05:16;97978.13;;;7.59;100.00
21431;BME280;10876;49.038;10.608;2023-04-02T05:07:48;98005.38;;;7.59;100.00
21431;BME280;10876;49.038;10.608;2023-04-02T05:10:21;98001.16;;;7.53;100.00
21431;BME280;10876;49.038;10.608;2023-04-02T05:12:54;98002.25;;;7.52;100.00
21431;BME280;10876;49.038;10.608;2023-04-02T05:15:24;98011.25;;;7.53;100.00
21431;BME280;10876;49.038;10.608;2023-04-02T05:18:05;98015.47;;;7.59;100.00
21431;BME280;10876;49.038;10.608;2023-04-02T05:20:35;98022.34;;;7.56;100.00
21431;BME280;10876;49.038;10.608;2023-04-02T05:23:13;98015.47;;;7.59;100.00
21431;BME280;10876;49.038;10.608;2023-04-02T05:25:51;98014.69;;;7.58;100.00
21431;BME280;10876;49.038;10.608;2023-04-02T05:28:24;98026.16;;;7.55;100.00
21431;BME280;10876;49.038;10.608;2023-04-02T05:30:55;98018.13;;;7.50;100.00
21431;BME280;10876;49.038;10.608;2023-04-02T05:33:27;98021.94;;;7.49;100.00
21431;BME280;10876;49.038;10.608;2023-04-02T05:35:58;98018.13;;;7.50;100.00
21431;BME280;10876;49.038;10.608;2023-04-02T05:38:29;98024.56;;;7.54;100.00
21431;BME280;10876;49.038;10.608;2023-04-02T05:40:59;98030.00;;;7.54;100.00
21431;BME280;10876;49.038;10.608;2023-04-02T05:43:30;98037.56;;;7.57;100.00
21431;BME280;10876;49.038;10.608;2023-04-02T05:46:01;98047.38;;;7.58;100.00
21431;BME280;10876;49.038;10.608;2023-04-02T05:48:33;98038.06;;;7.59;100.00
21431;BME280;10876;49.038;10.608;2023-04-02T05:51:03;98046.88;;;7.56;100.00
21431;BME280;10876;49.038;10.608;2023-04-02T05:53:34;98047.97;;;7.55;100.00
21431;BME280;10876;49.038;10.608;2023-04-02T05:56:09;98051.81;;;7.54;100.00
21431;BME280;10876;49.038;10.608;2023-04-02T05:58:40;98059.47;;;7.52;100.00
21431;BME280;10876;49.038;10.608;2023-04-02T06:01:18;98054.03;;;7.52;100.00
21431;BME280;10876;49.038;10.608;2023-04-02T06:03:52;98057.78;;;7.56;100.00
21431;BME280;10876;49.038;10.608;2023-04-02T06:06:39;98066.44;;;7.58;100.00
21431;BME280;10876;49.038;10.608;2023-04-02T06:09:12;98068.03;;;7.59;100.00
21431;BME280;10876;49.038;10.608;2023-04-02T06:11:43;98066.94;;;7.60;100.00
21431;BME280;10876;49.038;10.608;2023-04-02T06:14:12;98070.25;;;7.57;100.00
21431;BME280;10876;49.038;10.608;2023-04-02T06:16:39;98070.59;;;7.56;100.00
21431;BME280;10876;49.038;10.608;2023-04-02T06:19:13;98071.28;;;7.61;100.00
21431;BME280;10876;49.038;10.608;2023-04-02T06:21:43;98070.16;;;7.62;100.00
21431;BME280;10876;49.038;10.608;2023-04-02T06:24:14;98083.78;;;7.62;100.00
21431;BME280;10876;49.038;10.608;2023-04-02T06:26:43;98077.66;;;7.57;100.00
21431;BME280;10876;49.038;10.608;2023-04-02T06:29:16;98082.47;;;7.60;100.00
21431;BME280;10876;49.038;10.608;2023-04-02T06:31:49;98081.84;;;7.63;100.00
21431;BME280;10876;49.038;10.608;2023-04-02T06:34:18;98081.06;;;7.62;100.00
21431;BME280;10876;49.038;10.608;2023-04-02T06:36:46;98089.13;;;7.67;100.00
21431;BME280;10876;49.038;10.608;2023-04-02T06:39:18;98087.00;;;7.64;100.00
21431;BME280;10876;49.038;10.608;2023-04-02T06:41:53;98092.31;;;7.70;100.00
21431;BME280;10876;49.038;10.608;2023-04-02T06:44:23;98090.44;;;7.70;100.00
21431;BME280;10876;49.038;10.608;2023-04-02T06:46:54;98089.94;;;7.68;100.00
21431;BME280;10876;49.038;10.608;2023-04-02T06:49:27;98102.25;;;7.65;100.00
21431;BME280;10876;49.038;10.608;2023-04-02T06:51:57;98103.03;;;7.66;100.00
21431;BME280;10876;49.038;10.608;2023-04-02T06:54:27;98109.50;;;7.70;100.00
21431;BME280;10876;49.038;10.608;2023-04-02T06:56:54;98113.53;;;7.73;100.00
21431;BME280;10876;49.038;10.608;2023-04-02T06:59:21;98106.84;;;7.79;100.00
21431;BME280;10876;49.038;10.608;2023-04-02T07:01:51;98112.94;;;7.76;100.00
21431;BME280;10876;49.038;10.608;2023-04-02T07:04:19;98110.69;;;7.78;100.00
21431;BME280;10876;49.038;10.608;2023-04-02T07:06:46;98130.28;;;7.80;100.00
21431;BME280;10876;49.038;10.608;2023-04-02T07:09:13;98132.38;;;7.83;100.00
21431;BME280;10876;49.038;10.608;2023-04-02T07:11:41;98132.88;;;7.85;100.00
21431;BME280;10876;49.038;10.608;2023-04-02T07:14:10;98127.63;;;7.88;100.00
21431;BME280;10876;49.038;10.608;2023-04-02T07:16:37;98128.41;;;7.89;100.00
21431;BME280;10876;49.038;10.608;2023-04-02T07:19:05;98142.06;;;7.89;100.00
21431;BME280;10876;49.038;10.608;2023-04-02T07:21:32;98136.13;;;7.87;100.00
21431;BME280;10876;49.038;10.608;2023-04-02T07:23:59;98139.09;;;7.99;100.00
21431;BME280;10876;49.038;10.608;2023-04-02T07:26:26;98149.69;;;8.01;100.00
21431;BME280;10876;49.038;10.608;2023-04-02T07:28:55;98147.78;;;8.01;100.00
21431;BME280;10876;49.038;10.608;2023-04-02T07:31:23;98154.72;;;8.07;100.00
21431;BME280;10876;49.038;10.608;2023-04-02T07:33:51;98156.44;;;8.03;100.00
21431;BME280;10876;49.038;10.608;2023-04-02T07:36:21;98167.13;;;8.13;100.00
21431;BME280;10876;49.038;10.608;2023-04-02T07:38:48;98164.91;;;8.16;100.00
21431;BME280;10876;49.038;10.608;2023-04-02T07:41:16;98174.81;;;8.11;100.00
21431;BME280;10876;49.038;10.608;2023-04-02T07:43:44;98181.06;;;8.12;100.00
21431;BME280;10876;49.038;10.608;2023-04-02T07:46:13;98178.03;;;8.13;100.00
21431;BME280;10876;49.038;10.608;2023-04-02T07:48:42;98179.41;;;8.25;100.00
21431;BME280;10876;49.038;10.608;2023-04-02T07:51:14;98185.84;;;8.29;100.00
21431;BME280;10876;49.038;10.608;2023-04-02T07:53:41;98194.56;;;8.31;100.00
21431;BME280;10876;49.038;10.608;2023-04-02T07:56:12;98189.72;;;8.28;100.00
21431;BME280;10876;49.038;10.608;2023-04-02T07:58:40;98194.78;;;8.21;100.00
21431;BME280;10876;49.038;10.608;2023-04-02T08:01:15;98203.84;;;8.30;100.00
21431;BME280;10876;49.038;10.608;2023-04-02T08:03:42;98206.44;;;8.35;100.00
21431;BME280;10876;49.038;10.608;2023-04-02T08:06:09;98209.31;;;8.30;100.00
21431;BME280;10876;49.038;10.608;2023-04-02T08:08:36;98219.00;;;8.36;100.00
21431;BME280;10876;49.038;10.608;2023-04-02T08:11:03;98226.28;;;8.27;100.00
21431;BME280;10876;49.038;10.608;2023-04-02T08:13:30;98222.44;;;8.28;100.00
21431;BME280;10876;49.038;10.608;2023-04-02T08:15:58;98234.56;;;8.35;100.00
21431;BME280;10876;49.038;10.608;2023-04-02T08:18:26;98231.59;;;8.46;100.00
21431;BME280;10876;49.038;10.608;2023-04-02T08:20:53;98238.38;;;8.48;100.00
21431;BME280;10876;49.038;10.608;2023-04-02T08:23:20;98241.41;;;8.47;100.00
21431;BME280;10876;49.038;10.608;2023-04-02T08:25:47;98255.25;;;8.50;100.00
21431;BME280;10876;49.038;10.608;2023-04-02T08:28:14;98255.09;;;8.55;100.00
21431;BME280;10876;49.038;10.608;2023-04-02T08:30:41;98248.81;;;8.69;100.00
21431;BME280;10876;49.038;10.608;2023-04-02T08:33:08;98259.47;;;8.56;100.00
21431;BME280;10876;49.038;10.608;2023-04-02T08:35:37;98258.75;;;8.65;100.00
21431;BME280;10876;49.038;10.608;2023-04-02T08:38:04;98269.28;;;8.80;100.00
21431;BME280;10876;49.038;10.608;2023-04-02T08:40:33;98287.53;;;8.71;100.00
21431;BME280;10876;49.038;10.608;2023-04-02T08:43:19;98293.16;;;8.74;100.00
21431;BME280;10876;49.038;10.608;2023-04-02T08:45:59;98292.47;;;8.69;100.00
21431;BME280;10876;49.038;10.608;2023-04-02T08:48:29;98299.34;;;8.66;100.00
21431;BME280;10876;49.038;10.608;2023-04-02T08:51:00;98305.44;;;8.63;100.00
21431;BME280;10876;49.038;10.608;2023-04-02T08:53:31;98315.44;;;8.68;100.00
21431;BME280;10876;49.038;10.608;2023-04-02T08:56:06;98325.25;;;8.69;100.00
21431;BME280;10876;49.038;10.608;2023-04-02T08:58:43;98338.38;;;8.67;100.00
21431;BME280;10876;49.038;10.608;2023-04-02T09:01:20;98328.84;;;8.78;100.00
21431;BME280;10876;49.038;10.608;2023-04-02T09:03:50;98351.44;;;8.92;100.00
21431;BME280;10876;49.038;10.608;2023-04-02T09:06:23;98359.38;;;8.80;100.00
21431;BME280;10876;49.038;10.608;2023-04-02T09:08:53;98360.78;;;8.91;100.00
21431;BME280;10876;49.038;10.608;2023-04-02T09:11:23;98364.84;;;8.80;100.00
21431;BME280;10876;49.038;10.608;2023-04-02T09:13:55;98376.00;;;8.70;100.00
21431;BME280;10876;49.038;10.608;2023-04-02T09:16:35;98371.03;;;8.72;100.00
21431;BME280;10876;49.038;10.608;2023-04-02T09:19:14;98386.91;;;8.70;100.00
21431;BME280;10876;49.038;10.608;2023-04-02T09:21:46;98391.72;;;8.87;100.00
21431;BME280;10876;49.038;10.608;2023-04-02T09:24:17;98402.44;;;8.97;100.00
21431;BME280;10876;49.038;10.608;2023-04-02T09:26:45;98414.84;;;9.03;100.00
21431;BME280;10876;49.038;10.608;2023-04-02T09:29:24;98419.34;;;8.99;100.00
21431;BME280;10876;49.038;10.608;2023-04-02T09:32:03;98430.78;;;8.87;100.00
21431;BME280;10876;49.038;10.608;2023-04-02T09:34:34;98437.34;;;8.86;100.00
21431;BME280;10876;49.038;10.608;2023-04-02T09:37:07;98434.81;;;8.90;100.00
21431;BME280;10876;49.038;10.608;2023-04-02T09:39:35;98432.91;;;8.90;100.00
21431;BME280;10876;49.038;10.608;2023-04-02T09:42:06;98436.84;;;8.84;100.00
21431;BME280;10876;49.038;10.608;2023-04-02T09:44:33;98435.63;;;8.90;100.00
21431;BME280;10876;49.038;10.608;2023-04-02T09:47:02;98441.91;;;8.91;100.00
21431;BME280;10876;49.038;10.608;2023-04-02T09:49:31;98453.72;;;8.86;100.00
21431;BME280;10876;49.038;10.608;2023-04-02T09:52:19;98445.53;;;9.00;100.00
21431;BME280;10876;49.038;10.608;2023-04-02T09:55:09;98446.72;;;9.08;100.00
21431;BME280;10876;49.038;10.608;2023-04-02T09:57:42;98447.50;;;9.22;100.00
21431;BME280;10876;49.038;10.608;2023-04-02T10:00:16;98442.88;;;9.09;100.00
21431;BME280;10876;49.038;10.608;2023-04-02T10:02:44;98451.94;;;9.18;100.00
21431;BME280;10876;49.038;10.608;2023-04-02T10:05:18;98446.25;;;9.28;100.00
21431;BME280;10876;49.038;10.608;2023-04-02T10:07:49;98455.19;;;9.20;100.00
21431;BME280;10876;49.038;10.608;2023-04-02T10:10:20;98453.56;;;9.19;100.00
21431;BME280;10876;49.038;10.608;2023-04-02T10:12:51;98463.09;;;9.21;100.00
21431;BME280;10876;49.038;10.608;2023-04-02T10:15:26;98460.41;;;9.30;100.00
21431;BME280;10876;49.038;10.608;2023-04-02T10:18:02;98461.31;;;9.62;100.00
21431;BME280;10876;49.038;10.608;2023-04-02T10:20:33;98463.03;;;9.80;100.00
21431;BME280;10876;49.038;10.608;2023-04-02T10:23:03;98457.31;;;9.90;100.00
21431;BME280;10876;49.038;10.608;2023-04-02T10:25:34;98453.09;;;9.84;100.00
21431;BME280;10876;49.038;10.608;2023-04-02T10:28:10;98464.50;;;9.64;100.00
21431;BME280;10876;49.038;10.608;2023-04-02T10:30:49;98462.56;;;9.56;100.00
21431;BME280;10876;49.038;10.608;2023-04-02T10:33:21;98466.50;;;9.72;100.00
21431;BME280;10876;49.038;10.608;2023-04-02T10:35:56;98468.44;;;9.72;100.00
21431;BME280;10876;49.038;10.608;2023-04-02T10:38:34;98473.97;;;9.80;100.00
21431;BME280;10876;49.038;10.608;2023-04-02T10:41:21;98473.84;;;9.85;100.00
21431;BME280;10876;49.038;10.608;2023-04-02T10:43:57;98477.22;;;9.82;100.00
21431;BME280;10876;49.038;10.608;2023-04-02T10:46:33;98478.56;;;9.93;100.00
21431;BME280;10876;49.038;10.608;2023-04-02T10:49:09;98492.59;;;9.78;100.00
21431;BME280;10876;49.038;10.608;2023-04-02T10:51:43;98495.97;;;9.75;100.00
21431;BME280;10876;49.038;10.608;2023-04-02T10:54:29;98518.22;;;9.60;100.00
21431;BME280;10876;49.038;10.608;2023-04-02T10:57:04;98530.56;;;9.57;100.00
21431;BME280;10876;49.038;10.608;2023-04-02T10:59:34;98532.63;;;9.52;100.00
21431;BME280;10876;49.038;10.608;2023-04-02T11:02:16;98539.94;;;9.42;100.00
21431;BME280;10876;49.038;10.608;2023-04-02T11:04:46;98546.47;;;9.19;100.00
21431;BME280;10876;49.038;10.608;2023-04-02T11:07:17;98547.28;;;9.06;100.00
21431;BME280;10876;49.038;10.608;2023-04-02T11:09:47;98547.91;;;9.02;100.00
21431;BME280;10876;49.038;10.608;2023-04-02T11:12:20;98545.78;;;9.13;100.00
21431;BME280;10876;49.038;10.608;2023-04-02T11:14:49;98544.47;;;9.11;100.00
21431;BME280;10876;49.038;10.608;2023-04-02T11:17:18;98546.28;;;9.01;100.00
21431;BME280;10876;49.038;10.608;2023-04-02T11:19:46;98547.50;;;8.95;100.00
21431;BME280;10876;49.038;10.608;2023-04-02T11:22:14;98551.75;;;8.88;100.00
21431;BME280;10876;49.038;10.608;2023-04-02T11:24:43;98546.91;;;8.71;100.00
21431;BME280;10876;49.038;10.608;2023-04-02T11:27:20;98553.34;;;8.75;100.00
21431;BME280;10876;49.038;10.608;2023-04-02T11:29:50;98537.19;;;8.78;100.00
21431;BME280;10876;49.038;10.608;2023-04-02T11:32:36;98529.19;;;8.82;100.00
21431;BME280;10876;49.038;10.608;2023-04-02T11:38:46;98510.69;;;8.79;100.00
21431;BME280;10876;49.038;10.608;2023-04-02T11:44:24;98517.78;;;8.80;100.00
21431;BME280;10876;49.038;10.608;2023-04-02T11:46:50;98526.84;;;8.75;100.00
21431;BME280;10876;49.038;10.608;2023-04-02T11:49:38;98541.00;;;8.64;100.00
21431;BME280;10876;49.038;10.608;2023-04-02T11:52:26;98541.03;;;8.77;100.00
21431;BME280;10876;49.038;10.608;2023-04-02T11:55:05;98542.66;;;8.78;100.00
21431;BME280;10876;49.038;10.608;2023-04-02T11:58:07;98553.78;;;8.82;100.00
21431;BME280;10876;49.038;10.608;2023-04-02T12:01:10;98558.81;;;8.75;100.00
21431;BME280;10876;49.038;10.608;2023-04-02T12:04:13;98564.69;;;8.82;100.00
21431;BME280;10876;49.038;10.608;2023-04-02T12:06:56;98567.91;;;8.84;100.00
21431;BME280;10876;49.038;10.608;2023-04-02T12:09:28;98574.59;;;8.78;100.00
21431;BME280;10876;49.038;10.608;2023-04-02T12:11:58;98583.09;;;8.63;100.00
21431;BME280;10876;49.038;10.608;2023-04-02T12:14:40;98590.97;;;8.78;100.00
21431;BME280;10876;49.038;10.608;2023-04-02T12:17:17;98598.91;;;8.93;100.00
21431;BME280;10876;49.038;10.608;2023-04-02T12:19:51;98608.56;;;8.72;100.00
21431;BME280;10876;49.038;10.608;2023-04-02T12:22:21;98618.88;;;8.61;100.00
21431;BME280;10876;49.038;10.608;2023-04-02T12:24:49;98632.84;;;8.60;100.00
21431;BME280;10876;49.038;10.608;2023-04-02T12:27:18;98650.22;;;8.64;100.00
21431;BME280;10876;49.038;10.608;2023-04-02T12:29:47;98665.66;;;8.54;100.00
21431;BME280;10876;49.038;10.608;2023-04-02T12:32:23;98671.81;;;8.46;100.00
21431;BME280;10876;49.038;10.608;2023-04-02T12:34:52;98688.06;;;8.19;100.00
21431;BME280;10876;49.038;10.608;2023-04-02T12:37:21;98684.78;;;8.17;100.00
21431;BME280;10876;49.038;10.608;2023-04-02T12:39:53;98687.97;;;8.05;100.00
21431;BME280;10876;49.038;10.608;2023-04-02T12:42:25;98697.50;;;8.07;100.00
21431;BME280;10876;49.038;10.608;2023-04-02T12:44:52;98702.63;;;7.90;100.00
21431;BME280;10876;49.038;10.608;2023-04-02T12:47:21;98704.63;;;7.84;100.00
21431;BME280;10876;49.038;10.608;2023-04-02T12:49:48;98702.19;;;7.83;100.00
21431;BME280;10876;49.038;10.608;2023-04-02T12:52:17;98706.03;;;7.82;100.00
21431;BME280;10876;49.038;10.608;2023-04-02T12:54:47;98697.19;;;7.90;100.00
21431;BME280;10876;49.038;10.608;2023-04-02T12:57:30;98697.69;;;8.11;100.00
21431;BME280;10876;49.038;10.608;2023-04-02T12:59:59;98700.44;;;8.30;100.00
21431;BME280;10876;49.038;10.608;2023-04-02T13:02:40;98698.19;;;8.32;100.00
21431;BME280;10876;49.038;10.608;2023-04-02T13:05:08;98697.50;;;8.45;100.00
21431;BME280;10876;49.038;10.608;2023-04-02T13:07:35;98694.38;;;8.52;100.00
21431;BME280;10876;49.038;10.608;2023-04-02T13:10:04;98697.06;;;8.71;100.00
21431;BME280;10876;49.038;10.608;2023-04-02T13:12:34;98703.38;;;8.52;100.00
21431;BME280;10876;49.038;10.608;2023-04-02T13:15:04;98708.31;;;8.50;100.00
21431;BME280;10876;49.038;10.608;2023-04-02T13:17:38;98714.59;;;8.51;100.00
21431;BME280;10876;49.038;10.608;2023-04-02T13:20:30;98720.56;;;8.53;100.00
21431;BME280;10876;49.038;10.608;2023-04-02T13:22:59;98723.78;;;8.74;100.00
21431;BME280;10876;49.038;10.608;2023-04-02T13:25:28;98724.56;;;8.74;100.00
21431;BME280;10876;49.038;10.608;2023-04-02T13:27:55;98725.59;;;8.46;100.00